Other Surface Observations
Issued by NWS Great Falls, MT

Home | Current Version | Previous Version | Text Only | Print | Product List | Glossary On
Versions: 1 2 3 4 5 6 7 8 9 10 11 12 13 14 15 16 17 18 19 20 21 22 23 24 25 26 27 28 29 30 31 32 33 34 35 36 37 38 39 40 41 42 43 44 45 46 47 48 49 50
000
SXUS55 KTFX 290129
OSOTFX
AREA AWOS OBSERVATIONS
NATIONAL WEATHER SERVICE GREAT FALLS MT
0729 PM MDT SUN AUG 28 2016

METAR KPO1 290130Z AUTO 02007KT 10SM 26/11 A3004 RMK POPLAR
METAR K1S3 290130Z AUTO 05003KT 10SM 28/07 A3000 RMK FORSYTH
METAR KS71 290130Z AUTO 35006KT 10SM 22/09 A3012 RMK CHINOOK
METAR K38S 290130Z AUTO 31008KT 10SM 23/00 A3018 RMK DEER LODGE
METAR K6S5 290130Z AUTO 00000KT 2 1/2SM 24/08 A3011 RMK HAMILTON
METAR KS59 290130Z AUTO 18003KT 10SM 25/03 A3010 RMK LIBBY
METAR K88M 290130Z AUTO 21005KT 10SM 24/04 A3008 RMK EUREKA



USA.gov is the U.S. government's official web portal to all federal, state and local government web resources and services.